Time;durP1;ratioP1;P1;durP2;ratioP2;P2;SDS_P1;SDS_P2;PMS_P1;PMS_P2;Temp;Humidity;BMP_temperature;BMP_pressure;BME280_temperature;BME280_humidity;BME280_pressure;Samples;Min_cycle;Max_cycle;Signal;HPM_P1;HPM_P2
2021/11/22 00:00:25;;;;;;;3.97;1.67;;;6.00;99.90;;;;;;4879025;29;20044;-84
2021/11/22 00:02:53;;;;;;;1.92;1.60;;;6.00;99.90;;;;;;4878154;29;20025;-84
2021/11/22 00:05:19;;;;;;;5.63;2.53;;;6.00;99.90;;;;;;4878328;29;20091;-84
2021/11/22 00:07:45;;;;;;;4.50;1.60;;;6.00;99.90;;;;;;4878599;29;20025;-84
2021/11/22 00:10:11;;;;;;;3.00;1.67;;;6.00;99.90;;;;;;4877872;29;20489;-84
2021/11/22 00:12:37;;;;;;;4.20;1.60;;;6.00;99.90;;;;;;4878539;29;20025;-84
2021/11/22 00:15:05;;;;;;;5.28;1.65;;;6.00;99.90;;;;;;4878043;29;20029;-85
2021/11/22 00:17:31;;;;;;;5.07;1.92;;;6.00;99.90;;;;;;4878145;29;20064;-85
2021/11/22 00:19:58;;;;;;;3.13;1.80;;;6.00;99.90;;;;;;4878409;29;20064;-89
2021/11/22 00:22:25;;;;;;;3.72;1.60;;;6.00;99.90;;;;;;4878823;29;20025;-84
2021/11/22 00:24:51;;;;;;;4.07;1.48;;;5.90;99.90;;;;;;4878004;29;20064;-85
2021/11/22 00:27:16;;;;;;;5.00;2.15;;;5.90;99.90;;;;;;4877992;29;20084;-83
2021/11/22 00:29:42;;;;;;;4.15;2.28;;;5.90;99.90;;;;;;4878515;29;20421;-85
2021/11/22 00:32:08;;;;;;;3.88;1.90;;;5.90;99.90;;;;;;4877272;29;20024;-85
2021/11/22 00:34:41;;;;;;;4.07;1.67;;;5.90;99.90;;;;;;4877886;29;20127;-85
2021/11/22 00:37:12;;;;;;;3.35;1.50;;;5.90;99.90;;;;;;4877653;29;20394;-84
2021/11/22 00:39:38;;;;;;;3.57;1.97;;;5.90;99.90;;;;;;4877559;29;20068;-83
2021/11/22 00:42:07;;;;;;;3.78;1.60;;;5.90;99.90;;;;;;4877634;29;20064;-84
2021/11/22 00:44:32;;;;;;;3.10;1.55;;;5.90;99.90;;;;;;4878081;29;20036;-85
2021/11/22 00:46:58;;;;;;;3.35;2.03;;;5.90;99.90;;;;;;4877274;29;20021;-85
2021/11/22 00:49:23;;;;;;;4.60;1.80;;;5.80;99.90;;;;;;4879421;29;20069;-85
2021/11/22 00:51:49;;;;;;;4.00;1.73;;;5.80;99.90;;;;;;4878515;29;20025;-86
2021/11/22 00:54:14;;;;;;;5.05;2.15;;;5.80;99.90;;;;;;4878139;29;20033;-87
2021/11/22 00:56:40;;;;;;;4.32;1.83;;;5.80;99.90;;;;;;4877876;29;20128;-84
2021/11/22 00:59:05;;;;;;;2.42;1.40;;;5.80;99.90;;;;;;4876734;29;20116;-84
2021/11/22 01:01:31;;;;;;;4.13;1.95;;;5.80;99.90;;;;;;4878406;29;20380;-86
2021/11/22 01:03:57;;;;;;;3.03;1.35;;;5.80;99.90;;;;;;4877602;29;20205;-85
2021/11/22 01:06:22;;;;;;;3.13;1.52;;;5.70;99.90;;;;;;4877358;29;20029;-85
2021/11/22 01:08:48;;;;;;;3.47;1.55;;;5.70;99.90;;;;;;4878716;29;20025;-85
2021/11/22 01:11:13;;;;;;;5.07;1.92;;;5.70;99.90;;;;;;4877364;29;20481;-84
2021/11/22 01:13:39;;;;;;;3.40;1.48;;;5.70;99.90;;;;;;4878116;29;20439;-86
2021/11/22 01:16:05;;;;;;;4.28;1.85;;;5.70;99.90;;;;;;4876928;29;20489;-85
2021/11/22 01:18:31;;;;;;;3.75;1.55;;;5.70;99.90;;;;;;4878778;29;20037;-85
2021/11/22 01:20:56;;;;;;;3.65;1.40;;;5.70;99.90;;;;;;4877838;29;20504;-84
2021/11/22 01:23:22;;;;;;;3.40;1.50;;;5.70;99.90;;;;;;4877541;29;20116;-80
2021/11/22 01:25:48;;;;;;;1.80;1.33;;;5.70;99.90;;;;;;4877257;29;20151;-84
2021/11/22 01:28:14;;;;;;;3.17;1.40;;;5.70;99.90;;;;;;4876218;29;20040;-85
2021/11/22 01:30:39;;;;;;;1.70;1.20;;;5.70;99.90;;;;;;4877061;29;20025;-84
2021/11/22 01:33:05;;;;;;;5.35;1.67;;;5.70;99.90;;;;;;4876831;29;20438;-84
2021/11/22 01:35:30;;;;;;;3.83;1.40;;;5.70;99.90;;;;;;4876555;29;20048;-85
2021/11/22 01:37:56;;;;;;;2.10;1.83;;;5.70;99.90;;;;;;4878286;29;20386;-86
2021/11/22 01:40:26;;;;;;;3.10;1.40;;;5.70;99.90;;;;;;4877302;29;20097;-86
2021/11/22 01:42:53;;;;;;;3.40;1.50;;;5.70;99.90;;;;;;4876664;29;20025;-87
2021/11/22 01:45:20;;;;;;;4.28;1.38;;;5.70;99.90;;;;;;4877512;29;20568;-87
2021/11/22 01:47:46;;;;;;;3.55;1.77;;;5.70;99.90;;;;;;4876960;29;20378;-87
2021/11/22 01:50:16;;;;;;;2.13;1.30;;;5.70;99.90;;;;;;4876544;29;20031;-86
2021/11/22 01:52:42;;;;;;;3.92;1.60;;;5.70;99.90;;;;;;4876866;29;20025;-86
2021/11/22 01:55:10;;;;;;;3.50;1.73;;;5.70;99.90;;;;;;4876166;29;20028;-87
2021/11/22 01:57:36;;;;;;;4.28;1.60;;;5.70;99.90;;;;;;4876879;29;20021;-87
2021/11/22 02:00:07;;;;;;;3.88;1.45;;;5.60;99.90;;;;;;4876912;29;20119;-86
2021/11/22 02:02:32;;;;;;;5.03;1.50;;;5.70;99.90;;;;;;4877046;29;20470;-82
2021/11/22 02:04:58;;;;;;;5.75;2.15;;;5.60;99.90;;;;;;4876569;29;20040;-84
2021/11/22 02:07:24;;;;;;;4.88;1.60;;;5.60;99.90;;;;;;4876867;29;20021;-86
2021/11/22 02:09:50;;;;;;;3.15;1.70;;;5.60;99.90;;;;;;4876799;29;20025;-84
2021/11/22 02:12:19;;;;;;;8.10;1.73;;;5.60;99.90;;;;;;4876759;29;20040;-87
2021/11/22 02:14:44;;;;;;;3.78;1.70;;;5.60;99.90;;;;;;4876619;29;20025;-87
2021/11/22 02:17:11;;;;;;;3.95;1.65;;;5.60;99.90;;;;;;4875870;29;20036;-87
2021/11/22 02:19:56;;;;;;;2.00;1.40;;;5.50;99.90;;;;;;4876651;29;20034;-86
2021/11/22 02:22:22;;;;;;;5.20;2.33;;;5.50;99.90;;;;;;4877118;29;20028;-86
2021/11/22 02:24:48;;;;;;;3.00;1.52;;;5.50;99.90;;;;;;4877169;29;20403;-88
2021/11/22 02:27:14;;;;;;;5.93;2.35;;;5.50;99.90;;;;;;4877077;29;20063;-89
2021/11/22 02:29:39;;;;;;;4.00;1.42;;;5.50;99.90;;;;;;4878157;29;20021;-85
2021/11/22 02:32:05;;;;;;;4.25;1.70;;;5.50;99.90;;;;;;4876718;29;20040;-80
2021/11/22 02:34:31;;;;;;;5.05;1.73;;;5.50;99.90;;;;;;4877959;29;20030;-84
2021/11/22 02:36:57;;;;;;;3.70;1.80;;;5.40;99.90;;;;;;4876454;29;20096;-87
2021/11/22 02:39:22;;;;;;;1.92;1.60;;;5.40;99.90;;;;;;4876816;29;20036;-88
2021/11/22 02:41:48;;;;;;;3.92;1.33;;;5.40;99.90;;;;;;4877260;29;20088;-89
2021/11/22 02:44:14;;;;;;;4.07;1.60;;;5.40;99.90;;;;;;4880256;29;20035;-88
2021/11/22 02:46:40;;;;;;;4.82;1.70;;;5.40;99.90;;;;;;4895708;29;20033;-89
2021/11/22 02:49:06;;;;;;;4.65;1.55;;;5.40;99.90;;;;;;4890024;29;20029;-89
2021/11/22 03:08:49;;;;;;;4.82;2.17;;;5.30;99.90;;;;;;4861059;29;20277;-88
2021/11/22 03:12:20;;;;;;;3.28;1.63;;;5.20;99.90;;;;;;4861047;29;20124;-87
2021/11/22 05:44:12;;;;;;;22.55;3.10;;;4.50;99.90;;;;;;4896559;29;20043;-85
2021/11/22 05:46:38;;;;;;;3.22;1.70;;;4.50;99.90;;;;;;4888180;29;20426;-80
2021/11/22 05:49:04;;;;;;;3.35;1.65;;;4.50;99.90;;;;;;4882659;29;20033;-80
2021/11/22 05:51:30;;;;;;;4.70;1.92;;;4.50;99.90;;;;;;4885733;29;20055;-79
2021/11/22 05:53:58;;;;;;;1.70;1.33;;;4.50;99.90;;;;;;4893785;29;20104;-81
2021/11/22 05:56:23;;;;;;;3.45;1.75;;;4.50;99.90;;;;;;4894603;29;20116;-81
2021/11/22 05:58:49;;;;;;;3.97;1.65;;;4.50;99.90;;;;;;4896403;29;20549;-76
2021/11/22 06:01:15;;;;;;;4.90;1.60;;;4.50;99.90;;;;;;4892366;29;20190;-81
2021/11/22 06:03:41;;;;;;;3.05;1.55;;;4.50;99.90;;;;;;4894727;29;20028;-79
2021/11/22 06:06:07;;;;;;;1.95;1.38;;;4.40;99.90;;;;;;4879289;29;20045;-79
2021/11/22 06:08:33;;;;;;;4.45;1.85;;;4.50;99.90;;;;;;4876470;29;20057;-77
2021/11/22 06:10:59;;;;;;;2.78;2.28;;;4.40;99.90;;;;;;4875681;29;20017;-75
2021/11/22 06:13:24;;;;;;;4.47;1.70;;;4.40;99.90;;;;;;4876512;29;20037;-83
2021/11/22 06:15:50;;;;;;;3.83;1.55;;;4.40;99.90;;;;;;4874830;29;20236;-79
2021/11/22 06:18:17;;;;;;;3.38;1.70;;;4.40;99.90;;;;;;4885614;29;20555;-77
2021/11/22 06:20:42;;;;;;;3.58;1.52;;;4.40;99.90;;;;;;4893970;29;20033;-80
2021/11/22 06:23:08;;;;;;;3.17;1.70;;;4.40;99.90;;;;;;4893508;29;20068;-79
2021/11/22 06:25:35;;;;;;;3.08;1.70;;;4.40;99.90;;;;;;4890035;29;20379;-78
2021/11/22 06:28:01;;;;;;;3.05;1.80;;;4.30;99.90;;;;;;4881502;29;20452;-79
2021/11/22 06:30:27;;;;;;;3.92;1.60;;;4.30;99.90;;;;;;4891607;29;20030;-78
2021/11/22 06:32:53;;;;;;;6.50;1.95;;;4.30;99.90;;;;;;4894782;29;20056;-75
2021/11/22 06:35:20;;;;;;;3.30;1.42;;;4.30;99.90;;;;;;4899795;29;20035;-84
2021/11/22 06:37:46;;;;;;;2.83;1.48;;;4.30;99.90;;;;;;4897292;29;20111;-83
2021/11/22 06:40:12;;;;;;;3.05;1.38;;;4.30;99.90;;;;;;4897569;29;20063;-84
2021/11/22 06:42:38;;;;;;;3.53;1.52;;;4.30;99.90;;;;;;4891107;29;20478;-79
2021/11/22 06:45:05;;;;;;;2.70;1.70;;;4.30;99.90;;;;;;4897151;29;20039;-82
2021/11/22 06:47:32;;;;;;;7.82;2.10;;;4.30;99.90;;;;;;4899745;29;20111;-75
2021/11/22 06:49:57;;;;;;;4.22;1.70;;;4.30;99.90;;;;;;4897803;29;20028;-75
2021/11/22 06:52:23;;;;;;;7.03;1.60;;;4.30;99.90;;;;;;4898814;29;20076;-85
2021/11/22 06:54:50;;;;;;;3.47;1.60;;;4.30;99.90;;;;;;4899760;29;20035;-77
2021/11/22 15:56:09;;;;;;;2.83;1.98;;;6.00;99.90;;;;;;5039440;23;20757;-71
2021/11/22 15:58:34;;;;;;;2.95;2.13;;;5.90;99.90;;;;;;4913796;29;20020;-74
2021/11/22 16:01:00;;;;;;;3.33;2.22;;;5.90;99.90;;;;;;4894352;29;20028;-88
2021/11/22 16:03:26;;;;;;;3.65;2.28;;;5.90;99.90;;;;;;4898010;29;20062;-80
2021/11/22 16:05:58;;;;;;;3.53;2.33;;;5.80;99.90;;;;;;4912478;29;20032;-85
2021/11/22 16:08:23;;;;;;;3.42;2.13;;;5.70;99.90;;;;;;4897714;29;20020;-81
2021/11/22 16:10:49;;;;;;;3.05;2.20;;;5.70;99.90;;;;;;4898367;29;20036;-78
2021/11/22 16:13:15;;;;;;;3.42;2.40;;;5.70;99.90;;;;;;4896291;29;20032;-81
2021/11/22 16:15:44;;;;;;;2.83;2.20;;;5.60;99.90;;;;;;4897463;29;20042;-83
2021/11/22 16:18:11;;;;;;;4.63;3.10;;;5.60;99.90;;;;;;4896968;29;20379;-84
2021/11/22 16:20:37;;;;;;;3.65;2.97;;;5.50;99.90;;;;;;4914016;29;20043;-79
2021/11/22 16:23:02;;;;;;;5.25;3.08;;;5.50;99.90;;;;;;4892762;29;20032;-83
2021/11/22 16:25:28;;;;;;;3.83;3.00;;;5.50;99.90;;;;;;4895724;29;20029;-83
2021/11/22 16:27:55;;;;;;;3.85;2.72;;;5.40;99.90;;;;;;4896801;29;20019;-81
2021/11/22 16:30:20;;;;;;;4.55;2.95;;;5.40;99.90;;;;;;4912901;29;20031;-80
2021/11/22 16:32:46;;;;;;;3.22;2.83;;;5.40;99.90;;;;;;4918455;29;20031;-82
2021/11/22 16:35:11;;;;;;;4.88;3.47;;;5.30;99.90;;;;;;4919732;29;20036;-87
2021/11/22 16:37:37;;;;;;;3.90;2.78;;;5.30;99.90;;;;;;4898712;29;20492;-83
2021/11/22 16:40:04;;;;;;;4.75;3.28;;;5.20;99.90;;;;;;4915278;29;20102;-81
2021/11/22 16:42:30;;;;;;;3.85;3.00;;;5.20;99.90;;;;;;4899055;29;20064;-81
2021/11/22 16:44:55;;;;;;;4.53;3.20;;;5.10;99.90;;;;;;4883967;29;20072;-81
2021/11/22 16:47:21;;;;;;;3.88;3.47;;;5.10;99.90;;;;;;4895168;29;20033;-84
2021/11/22 16:49:47;;;;;;;4.28;3.00;;;5.00;99.90;;;;;;4894746;29;20031;-81
2021/11/22 16:52:12;;;;;;;5.03;2.97;;;5.00;99.90;;;;;;4887287;29;20432;-82
2021/11/22 16:54:38;;;;;;;5.22;3.13;;;5.00;99.90;;;;;;4896885;29;20027;-83
2021/11/22 16:57:04;;;;;;;4.40;3.40;;;5.00;99.90;;;;;;4895844;29;20110;-85
2021/11/22 16:59:30;;;;;;;5.35;3.50;;;4.90;99.90;;;;;;4912785;29;20048;-84
2021/11/22 17:01:56;;;;;;;4.80;3.50;;;4.90;99.90;;;;;;4913457;29;20547;-80
2021/11/22 17:04:22;;;;;;;5.10;3.53;;;4.90;99.90;;;;;;4896450;29;20036;-81
2021/11/22 17:06:48;;;;;;;4.55;3.50;;;4.90;99.90;;;;;;4913090;29;20264;-80
2021/11/22 17:09:15;;;;;;;4.40;3.67;;;4.80;99.90;;;;;;4897197;29;20071;-90
2021/11/22 17:11:45;;;;;;;4.35;3.30;;;4.80;99.90;;;;;;4897111;29;20062;-84
2021/11/22 17:14:11;;;;;;;4.28;3.58;;;4.80;99.90;;;;;;4913712;29;20028;-82
2021/11/22 17:16:39;;;;;;;5.43;3.50;;;4.80;99.90;;;;;;4889312;29;20025;-83
2021/11/22 17:19:10;;;;;;;4.10;3.25;;;4.80;99.90;;;;;;4893486;29;20036;-85
2021/11/22 17:21:42;;;;;;;3.17;2.53;;;4.80;99.90;;;;;;4893187;29;20489;-83
2021/11/22 17:24:08;;;;;;;;;;;4.80;99.90;;;;;;4894343;29;20111;-82
2021/11/22 17:26:35;;;;;;;5.80;2.47;;;4.70;99.90;;;;;;4880460;29;20367;-87
2021/11/22 17:29:01;;;;;;;4.97;3.20;;;4.80;99.90;;;;;;4880527;29;20036;-85
2021/11/22 17:31:27;;;;;;;5.22;3.15;;;4.70;99.90;;;;;;4896663;29;20028;-88
2021/11/22 17:33:54;;;;;;;4.03;3.03;;;4.70;99.90;;;;;;4907867;29;20036;-85
2021/11/22 17:36:20;;;;;;;4.97;2.97;;;4.70;99.90;;;;;;4895698;29;20089;-86
2021/11/22 17:38:45;;;;;;;3.30;3.00;;;4.70;99.90;;;;;;4880709;29;20075;-85
2021/11/22 17:41:11;;;;;;;7.15;3.60;;;4.70;99.90;;;;;;4877611;29;20051;-88
2021/11/22 17:43:37;;;;;;;4.90;3.75;;;4.70;99.90;;;;;;4899421;29;20099;-82
2021/11/22 17:46:03;;;;;;;6.90;3.70;;;4.70;99.90;;;;;;4911956;29;20040;-83
2021/11/22 17:48:29;;;;;;;6.30;3.50;;;4.60;99.90;;;;;;4913196;29;20081;-85
2021/11/22 17:50:56;;;;;;;6.13;4.18;;;4.60;99.90;;;;;;4896151;29;20032;-85
2021/11/22 17:53:26;;;;;;;6.78;4.32;;;4.60;99.90;;;;;;4912962;29;20058;-86
2021/11/22 17:55:55;;;;;;;6.25;4.03;;;4.60;99.90;;;;;;4893665;29;20055;-84
2021/11/22 17:58:21;;;;;;;5.75;4.03;;;4.60;99.90;;;;;;4905420;29;20024;-79
2021/11/22 18:00:47;;;;;;;7.78;4.88;;;4.60;99.90;;;;;;4896449;29;20044;-79
2021/11/22 18:03:14;;;;;;;6.63;4.68;;;4.60;99.90;;;;;;4882398;29;20032;-78
2021/11/22 18:05:40;;;;;;;7.82;4.70;;;4.50;99.90;;;;;;4895037;29;20165;-79
2021/11/22 18:08:06;;;;;;;6.25;4.50;;;4.50;99.90;;;;;;4894187;29;20458;-80
2021/11/22 18:10:32;;;;;;;5.88;4.25;;;4.50;99.90;;;;;;4894791;29;20036;-78
2021/11/22 18:12:58;;;;;;;5.63;3.60;;;4.50;99.90;;;;;;4894464;29;20075;-77
2021/11/22 18:15:24;;;;;;;5.72;4.10;;;4.50;99.90;;;;;;4895416;29;20027;-82
2021/11/22 18:17:51;;;;;;;7.75;4.20;;;4.50;99.90;;;;;;4912418;29;20036;-78
2021/11/22 18:20:17;;;;;;;5.20;4.07;;;4.40;99.90;;;;;;4900460;29;20135;-86
2021/11/22 18:22:46;;;;;;;5.72;3.70;;;4.40;99.90;;;;;;4914188;29;20134;-80
2021/11/22 18:25:12;;;;;;;5.65;3.83;;;4.40;99.90;;;;;;4901874;29;20036;-86
2021/11/22 18:27:38;;;;;;;6.32;3.95;;;4.40;99.90;;;;;;4894138;29;20035;-82
2021/11/22 18:30:07;;;;;;;5.18;3.78;;;4.30;99.90;;;;;;4894569;29;20036;-81
2021/11/22 18:32:33;;;;;;;6.47;4.30;;;4.30;99.90;;;;;;4895429;29;20095;-82
2021/11/22 18:34:59;;;;;;;5.38;3.90;;;4.30;99.90;;;;;;4895770;29;20476;-85
2021/11/22 18:37:26;;;;;;;5.95;4.25;;;4.30;99.90;;;;;;4895835;29;20084;-85
2021/11/22 18:39:53;;;;;;;5.53;4.55;;;4.30;99.90;;;;;;4896315;29;20481;-82
2021/11/22 18:42:20;;;;;;;5.63;4.18;;;4.30;99.90;;;;;;4895714;29;20096;-81
2021/11/22 18:44:45;;;;;;;4.95;3.67;;;4.30;99.90;;;;;;4892009;29;20084;-83
2021/11/22 18:47:11;;;;;;;5.20;3.78;;;4.20;99.90;;;;;;4892328;29;20299;-86
2021/11/22 18:49:37;;;;;;;4.25;3.35;;;4.20;99.90;;;;;;4893152;29;20032;-88
2021/11/22 18:52:03;;;;;;;5.45;3.70;;;4.20;99.90;;;;;;4894386;29;20505;-81
2021/11/22 18:54:28;;;;;;;5.68;3.60;;;4.30;99.90;;;;;;4895620;29;20036;-84
2021/11/22 18:56:55;;;;;;;4.25;3.33;;;4.20;99.90;;;;;;4894715;29;20171;-87
2021/11/22 18:59:20;;;;;;;4.32;2.95;;;4.30;99.90;;;;;;4894689;29;20028;-80
2021/11/22 19:01:50;;;;;;;5.88;3.33;;;4.30;99.90;;;;;;4895311;29;20036;-80
2021/11/22 19:04:22;;;;;;;5.07;2.88;;;4.30;99.90;;;;;;4912563;29;20020;-84
2021/11/22 19:06:49;;;;;;;5.35;2.95;;;4.30;99.90;;;;;;4895307;29;20028;-79
2021/11/22 19:09:15;;;;;;;4.65;2.58;;;4.30;99.90;;;;;;4894873;29;20032;-80
2021/11/22 19:11:45;;;;;;;3.67;2.78;;;4.30;99.90;;;;;;4911850;29;20028;-87
2021/11/22 19:14:14;;;;;;;3.78;2.70;;;4.30;99.90;;;;;;4894560;29;20040;-83
2021/11/22 19:16:42;;;;;;;3.40;2.38;;;4.30;99.90;;;;;;4912206;29;20036;-87
2021/11/22 19:19:14;;;;;;;6.53;2.85;;;4.30;99.90;;;;;;4894421;29;20035;-85
2021/11/22 19:21:40;;;;;;;4.00;2.67;;;4.30;99.90;;;;;;4895041;29;20160;-81
2021/11/22 19:24:08;;;;;;;5.63;3.10;;;4.30;99.90;;;;;;4910532;29;20126;-80
2021/11/22 19:26:35;;;;;;;6.22;3.58;;;4.30;99.90;;;;;;4894705;29;20059;-81
2021/11/22 19:29:05;;;;;;;8.57;4.95;;;4.40;99.90;;;;;;4911886;29;20032;-80
2021/11/22 19:31:31;;;;;;;14.35;6.80;;;4.30;99.90;;;;;;4894957;29;20032;-79
2021/11/22 19:33:57;;;;;;;11.55;6.68;;;4.30;99.90;;;;;;4893928;29;20035;-86
2021/11/22 19:36:23;;;;;;;11.18;7.00;;;4.30;99.90;;;;;;4894216;29;20040;-81
2021/11/22 19:38:49;;;;;;;7.80;4.93;;;4.30;99.90;;;;;;4894767;29;20495;-80
2021/11/22 19:41:16;;;;;;;6.57;4.45;;;4.20;99.90;;;;;;4896262;29;20047;-82
2021/11/22 19:43:45;;;;;;;6.78;4.47;;;4.20;99.90;;;;;;4897932;29;20028;-86
2021/11/22 19:46:13;;;;;;;5.43;3.53;;;4.10;99.90;;;;;;4897829;29;20028;-82
2021/11/22 19:48:39;;;;;;;6.15;3.22;;;4.10;99.90;;;;;;4897346;29;20036;-79
2021/11/22 19:51:04;;;;;;;5.57;4.00;;;4.10;99.90;;;;;;4897822;29;20024;-86
2021/11/22 19:53:39;;;;;;;4.60;3.17;;;4.10;99.90;;;;;;4898148;29;20032;-83
2021/11/22 19:56:05;;;;;;;5.28;3.70;;;4.10;99.90;;;;;;4895390;29;20040;-92
2021/11/22 19:58:31;;;;;;;3.65;2.63;;;4.10;99.90;;;;;;4890322;29;20028;-83
2021/11/22 20:00:57;;;;;;;3.92;2.75;;;4.10;99.90;;;;;;4897407;29;20048;-78
2021/11/22 20:03:24;;;;;;;4.97;2.95;;;4.10;99.90;;;;;;4896717;29;20506;-73
2021/11/22 20:05:50;;;;;;;2.85;2.58;;;4.00;99.90;;;;;;4912981;29;20028;-74
2021/11/22 20:08:18;;;;;;;3.80;2.70;;;4.00;99.90;;;;;;4894698;29;20047;-77
2021/11/22 20:10:59;;;;;;;3.25;2.75;;;4.00;99.90;;;;;;4892697;29;20051;-81
2021/11/22 20:13:25;;;;;;;2.72;2.30;;;4.00;99.90;;;;;;4878933;29;20131;-80
2021/11/22 20:15:50;;;;;;;3.53;2.55;;;4.00;99.90;;;;;;4887854;29;20036;-88
2021/11/22 20:18:18;;;;;;;3.22;2.45;;;4.00;99.90;;;;;;4917318;29;20122;-90
2021/11/22 20:20:44;;;;;;;3.40;2.63;;;3.90;99.90;;;;;;4914824;29;20480;-83
2021/11/22 20:23:12;;;;;;;3.92;2.80;;;3.90;99.90;;;;;;4899953;29;20020;-90
2021/11/22 20:25:40;;;;;;;4.82;3.22;;;3.90;99.90;;;;;;4917294;29;20028;-88
2021/11/22 20:28:24;;;;;;;3.97;3.30;;;3.90;99.90;;;;;;4891780;29;20087;-90
2021/11/22 20:30:49;;;;;;;3.42;3.13;;;3.90;99.90;;;;;;4913359;29;20499;-89
2021/11/22 20:33:15;;;;;;;3.97;3.15;;;3.80;99.90;;;;;;4901130;29;20024;-87
2021/11/22 20:35:41;;;;;;;5.70;3.10;;;3.80;99.90;;;;;;4896689;29;20107;-82
2021/11/22 20:38:07;;;;;;;4.63;3.08;;;3.80;99.90;;;;;;4899345;29;20461;-84
2021/11/22 20:40:33;;;;;;;6.15;2.97;;;3.80;99.90;;;;;;4914022;29;20503;-75
2021/11/22 20:43:00;;;;;;;3.97;2.67;;;3.80;99.90;;;;;;4909204;29;20028;-75
2021/11/22 20:45:27;;;;;;;4.22;3.17;;;3.70;99.90;;;;;;4913591;29;20024;-82
2021/11/22 20:47:54;;;;;;;4.03;3.22;;;3.70;99.90;;;;;;4893264;29;20036;-82
2021/11/22 20:50:20;;;;;;;4.13;3.17;;;3.70;99.90;;;;;;4887590;29;20619;-88
2021/11/22 20:52:45;;;;;;;3.33;2.50;;;3.70;99.90;;;;;;4906081;29;20059;-91
2021/11/22 20:55:12;;;;;;;3.50;3.00;;;3.70;99.90;;;;;;4897519;29;20048;-74
2021/11/22 20:57:39;;;;;;;3.33;2.60;;;3.70;99.90;;;;;;4902907;29;20096;-76
2021/11/22 21:00:07;;;;;;;4.95;3.00;;;3.70;99.90;;;;;;4915200;29;20039;-76
2021/11/22 21:02:33;;;;;;;3.58;2.72;;;3.60;99.90;;;;;;4892012;29;20024;-75
2021/11/22 21:04:58;;;;;;;3.97;2.80;;;3.70;99.90;;;;;;4898406;29;20108;-77
2021/11/22 21:07:28;;;;;;;4.93;3.05;;;3.60;99.90;;;;;;4888794;29;20067;-79
2021/11/22 21:09:55;;;;;;;4.30;2.70;;;3.60;99.90;;;;;;4898523;29;20388;-83
2021/11/22 21:12:21;;;;;;;2.95;2.67;;;3.60;99.90;;;;;;4905148;29;20029;-91
2021/11/22 21:14:47;;;;;;;3.28;2.70;;;3.60;99.90;;;;;;4887164;29;20095;-83
2021/11/22 21:17:13;;;;;;;3.97;2.90;;;3.60;99.90;;;;;;4912035;29;20477;-77
2021/11/22 21:19:38;;;;;;;3.28;2.38;;;3.60;99.90;;;;;;4898628;29;20035;-84
2021/11/22 21:22:04;;;;;;;3.15;2.53;;;3.60;99.90;;;;;;4902233;29;20054;-79
2021/11/22 21:24:30;;;;;;;4.13;3.15;;;3.50;99.90;;;;;;4915396;29;20075;-84
2021/11/22 21:26:55;;;;;;;3.53;2.90;;;3.60;99.90;;;;;;4898884;29;20028;-76
2021/11/22 21:29:22;;;;;;;2.97;2.70;;;3.50;99.90;;;;;;4916293;29;20103;-78
2021/11/22 21:31:48;;;;;;;4.40;2.88;;;3.60;99.90;;;;;;4899207;29;20112;-93
2021/11/22 21:34:19;;;;;;;3.88;3.35;;;3.50;99.90;;;;;;4914682;29;20032;-80
2021/11/22 21:36:47;;;;;;;3.25;2.17;;;3.50;99.90;;;;;;4899091;29;20024;-76
2021/11/22 21:39:13;;;;;;;2.72;2.45;;;3.60;99.90;;;;;;4895976;29;20030;-83
2021/11/22 21:41:44;;;;;;;3.08;2.53;;;3.50;99.90;;;;;;4893445;29;20025;-76
2021/11/22 21:44:11;;;;;;;3.10;2.40;;;3.50;99.90;;;;;;4899304;29;20017;-90
2021/11/22 21:46:37;;;;;;;4.20;3.13;;;3.50;99.90;;;;;;4899238;29;20051;-76
2021/11/22 21:49:02;;;;;;;5.90;3.20;;;3.50;99.90;;;;;;4883120;29;20492;-83
2021/11/22 21:51:28;;;;;;;4.65;2.95;;;3.50;99.90;;;;;;4879758;29;20028;-81
2021/11/22 21:53:54;;;;;;;4.38;3.03;;;3.50;99.90;;;;;;4887535;29;20484;-75
2021/11/22 21:56:19;;;;;;;5.70;3.72;;;3.50;99.90;;;;;;4885734;29;20105;-77
2021/11/22 21:58:45;;;;;;;6.30;4.13;;;3.50;99.90;;;;;;4879794;29;20033;-76
2021/11/22 22:01:11;;;;;;;6.10;4.07;;;3.50;99.90;;;;;;4897403;29;20387;-88
2021/11/22 22:03:38;;;;;;;5.65;3.78;;;3.40;99.90;;;;;;4898388;29;20084;-76
2021/11/22 22:06:04;;;;;;;5.03;3.60;;;3.50;99.90;;;;;;4898153;29;20513;-87
2021/11/22 22:08:30;;;;;;;5.15;3.53;;;3.50;99.90;;;;;;4915555;29;20020;-76
2021/11/22 22:10:55;;;;;;;7.18;5.32;;;3.50;99.90;;;;;;4893258;29;20032;-76
2021/11/22 22:13:21;;;;;;;9.68;6.65;;;3.50;99.90;;;;;;4901792;29;20028;-80
2021/11/22 22:15:47;;;;;;;11.68;7.20;;;3.50;99.90;;;;;;4880033;29;20428;-77
2021/11/22 22:18:12;;;;;;;10.00;7.05;;;3.50;99.90;;;;;;4915667;29;20424;-81
2021/11/22 22:20:38;;;;;;;9.25;6.00;;;3.50;99.90;;;;;;4915453;29;20072;-76
2021/11/22 22:23:04;;;;;;;6.32;5.28;;;3.50;99.90;;;;;;4897351;29;20024;-77
2021/11/22 22:25:29;;;;;;;6.28;4.30;;;3.50;99.90;;;;;;4898556;29;20028;-78
2021/11/22 22:27:55;;;;;;;6.85;4.68;;;3.40;99.90;;;;;;4914606;29;20481;-84
2021/11/22 22:30:22;;;;;;;5.32;4.10;;;3.50;99.90;;;;;;4896222;29;20032;-77
2021/11/22 22:32:48;;;;;;;5.10;3.90;;;3.50;99.90;;;;;;4879560;29;20029;-78
2021/11/22 22:35:14;;;;;;;5.00;3.33;;;3.50;99.90;;;;;;4900068;29;20040;-90
2021/11/22 22:37:40;;;;;;;6.43;3.00;;;3.50;99.90;;;;;;4897591;29;20027;-76
2021/11/22 22:40:08;;;;;;;3.92;3.08;;;3.50;99.90;;;;;;4898082;29;20492;-89
2021/11/22 22:42:35;;;;;;;6.15;3.95;;;3.50;99.90;;;;;;4882750;29;20060;-82
2021/11/22 22:45:01;;;;;;;5.88;3.53;;;3.50;99.90;;;;;;4914704;29;20114;-76
2021/11/22 22:47:26;;;;;;;4.65;3.05;;;3.50;99.90;;;;;;4919525;29;20028;-82
2021/11/22 22:49:52;;;;;;;3.80;3.10;;;3.50;99.90;;;;;;4900839;29;20039;-77
2021/11/22 22:52:20;;;;;;;4.50;3.00;;;3.60;99.90;;;;;;4916352;29;20038;-76
2021/11/22 22:54:50;;;;;;;5.78;3.25;;;3.60;99.90;;;;;;4917672;29;20032;-80
2021/11/22 22:57:16;;;;;;;3.97;2.88;;;3.60;99.90;;;;;;4893946;29;20062;-76
2021/11/22 22:59:41;;;;;;;5.65;3.00;;;3.70;99.90;;;;;;4914274;29;20028;-77
2021/11/22 23:02:08;;;;;;;5.15;3.40;;;3.60;99.90;;;;;;4897948;29;20056;-87
2021/11/22 23:04:33;;;;;;;4.78;2.80;;;3.70;99.90;;;;;;4897655;29;20556;-76
2021/11/22 23:07:03;;;;;;;4.50;3.03;;;3.60;99.90;;;;;;4897595;29;20052;-86
2021/11/22 23:09:28;;;;;;;5.45;3.00;;;3.70;99.90;;;;;;4898603;29;20016;-76
2021/11/22 23:11:54;;;;;;;5.22;3.67;;;3.70;99.90;;;;;;4896811;29;20024;-76
2021/11/22 23:14:20;;;;;;;3.20;2.67;;;3.70;99.90;;;;;;4914658;29;20166;-88
2021/11/22 23:16:45;;;;;;;3.65;3.15;;;3.70;99.90;;;;;;4917650;29;20072;-80
2021/11/22 23:19:11;;;;;;;4.05;2.85;;;3.70;99.90;;;;;;4900926;29;20020;-76
2021/11/22 23:21:38;;;;;;;5.53;3.05;;;3.70;99.90;;;;;;4901475;29;20036;-91
2021/11/22 23:24:05;;;;;;;3.90;3.40;;;3.70;99.90;;;;;;4901146;29;20020;-78
2021/11/22 23:26:30;;;;;;;8.30;3.72;;;3.80;99.90;;;;;;4918163;29;20024;-76
2021/11/22 23:28:57;;;;;;;6.03;4.28;;;3.80;99.90;;;;;;4901183;29;20020;-76
2021/11/22 23:31:24;;;;;;;8.48;4.75;;;3.70;99.90;;;;;;4918699;29;20504;-76
2021/11/22 23:33:50;;;;;;;8.52;4.55;;;3.80;99.90;;;;;;4900726;29;20032;-88
2021/11/22 23:36:15;;;;;;;7.72;4.45;;;3.80;99.90;;;;;;4917858;29;20816;-90
2021/11/22 23:38:41;;;;;;;6.20;4.25;;;3.80;99.90;;;;;;4918089;29;20032;-88
2021/11/22 23:41:07;;;;;;;6.13;3.97;;;3.80;99.90;;;;;;4900321;29;20532;-88
2021/11/22 23:43:34;;;;;;;5.95;3.80;;;3.80;99.90;;;;;;4917421;29;20075;-76
2021/11/22 23:45:59;;;;;;;5.95;3.78;;;3.80;99.90;;;;;;4900876;29;20134;-76
2021/11/22 23:48:25;;;;;;;5.75;3.75;;;3.80;99.90;;;;;;4900776;29;20088;-76
2021/11/22 23:50:51;;;;;;;5.00;3.50;;;3.70;99.90;;;;;;4905050;29;20058;-79
2021/11/22 23:53:18;;;;;;;6.20;4.43;;;3.80;99.90;;;;;;4898593;29;20025;-89
2021/11/22 23:55:46;;;;;;;5.75;3.63;;;3.80;99.90;;;;;;4882204;29;20059;-76
2021/11/22 23:58:13;;;;;;;3.58;2.72;;;3.80;99.90;;;;;;4898711;29;20116;-77
